Time;durP1;ratioP1;P1;durP2;ratioP2;P2;SDS_P1;SDS_P2;PMS_P1;PMS_P2;Temp;Humidity;BMP_temperature;BMP_pressure;BME280_temperature;BME280_humidity;BME280_pressure;Samples;Min_cycle;Max_cycle;Signal;HPM_P1;HPM_P2
2023/04/29 00:00:30;;;;;;;;;;;;;;;8.83;64.49;99857.13;5093681;28;19998;-41
2023/04/29 00:02:56;;;;;;;;;;;;;;;8.92;64.71;99854.13;5093852;28;20299;-41
2023/04/29 00:05:21;;;;;;;;;;;;;;;9.24;63.81;99854.63;5093730;28;20399;-41
2023/04/29 00:07:46;;;;;;;;;;;;;;;9.13;64.35;99857.81;5093452;28;19912;-41
2023/04/29 00:10:13;;;;;;;;;;;;;;;8.98;64.26;99858.69;5092944;28;19994;-42
2023/04/29 00:12:40;;;;;;;;;;;;;;;8.90;65.58;99861.47;5093303;28;20010;-42
2023/04/29 00:15:05;;;;;;;;;;;;;;;8.77;64.81;99859.50;5093286;28;19951;-42
2023/04/29 00:17:30;;;;;;;;;;;;;;;9.14;63.30;99865.59;5093577;28;20015;-42
2023/04/29 00:19:56;;;;;;;;;;;;;;;9.31;62.42;99846.69;5093220;28;19912;-42
2023/04/29 00:22:21;;;;;;;;;;;;;;;9.07;63.03;99851.41;5093039;28;20058;-42
2023/04/29 00:24:46;;;;;;;;;;;;;;;8.83;63.74;99855.28;5092457;28;19912;-41
2023/04/29 00:27:12;;;;;;;;;;;;;;;8.82;63.37;99852.84;5093245;28;19950;-41
2023/04/29 00:29:37;;;;;;;;;;;;;;;8.92;64.17;99846.19;5092956;28;19948;-41
2023/04/29 00:32:03;;;;;;;;;;;;;;;8.87;64.33;99856.56;5092962;28;19920;-41
2023/04/29 00:34:28;;;;;;;;;;;;;;;8.93;63.47;99854.94;5093150;28;19912;-42
2023/04/29 00:36:53;;;;;;;;;;;;;;;8.89;63.40;99851.03;5092872;28;20396;-41
2023/04/29 00:39:19;;;;;;;;;;;;;;;8.77;63.59;99853.38;5092837;28;20070;-41
2023/04/29 00:41:44;;;;;;;;;;;;;;;8.54;63.93;99850.91;5093264;28;19912;-42
2023/04/29 00:44:10;;;;;;;;;;;;;;;8.48;64.31;99854.31;5092676;28;19912;-41
2023/04/29 00:46:36;;;;;;;;;;;;;;;8.80;64.09;99860.97;5092737;28;19954;-41
2023/04/29 00:49:01;;;;;;;;;;;;;;;8.66;65.44;99859.19;5092415;28;20321;-41
2023/04/29 00:51:27;;;;;;;;;;;;;;;8.95;63.69;99861.75;5092530;28;19955;-41
2023/04/29 00:53:52;;;;;;;;;;;;;;;8.75;64.48;99863.38;5092532;28;19912;-42
2023/04/29 00:56:19;;;;;;;;;;;;;;;8.78;63.42;99858.50;5092598;28;19940;-42
2023/04/29 00:58:48;;;;;;;;;;;;;;;9.05;62.71;99857.94;5092194;28;19923;-41
2023/04/29 01:01:15;;;;;;;;;;;;;;;9.00;62.16;99847.88;5092294;28;19939;-42
2023/04/29 01:03:40;;;;;;;;;;;;;;;9.02;62.61;99858.31;5092320;28;19978;-41
2023/04/29 01:06:06;;;;;;;;;;;;;;;8.71;64.72;99859.44;5092433;28;20087;-40
2023/04/29 01:08:51;;;;;;;;;;;;;;;8.83;64.05;99857.94;5092263;28;19927;-41
2023/04/29 01:11:22;;;;;;;;;;;;;;;8.53;65.75;99859.84;5090436;28;20483;-41
2023/04/29 01:13:53;;;;;;;;;;;;;;;8.60;65.37;99861.59;5092358;28;19912;-41
2023/04/29 01:16:18;;;;;;;;;;;;;;;8.58;65.20;99847.66;5092243;28;19912;-41
2023/04/29 01:19:01;;;;;;;;;;;;;;;8.64;66.02;99858.56;5092350;28;19969;-41
2023/04/29 01:21:27;;;;;;;;;;;;;;;8.48;66.46;99862.25;5091103;28;20340;-41
2023/04/29 01:23:55;;;;;;;;;;;;;;;8.67;66.69;99848.38;5092173;28;20003;-41
2023/04/29 01:26:23;;;;;;;;;;;;;;;8.49;66.91;99854.13;5091730;28;19924;-41
2023/04/29 01:28:51;;;;;;;;;;;;;;;8.35;66.79;99850.44;5092302;28;19926;-41
2023/04/29 01:31:22;;;;;;;;;;;;;;;8.43;67.23;99846.09;5092014;28;20367;-41
2023/04/29 01:34:03;;;;;;;;;;;;;;;8.60;65.98;99847.50;5091690;28;19944;-42
2023/04/29 01:36:31;;;;;;;;;;;;;;;8.45;66.78;99841.41;5092234;28;19912;-41
2023/04/29 01:39:00;;;;;;;;;;;;;;;8.63;67.08;99841.00;5092023;28;19912;-41
2023/04/29 01:41:41;;;;;;;;;;;;;;;8.68;66.52;99835.94;5092056;28;20379;-41
2023/04/29 01:44:07;;;;;;;;;;;;;;;8.55;67.08;99828.69;5091946;28;19912;-41
2023/04/29 01:46:33;;;;;;;;;;;;;;;8.32;67.97;99834.94;5091600;28;19916;-41
2023/04/29 01:48:58;;;;;;;;;;;;;;;7.94;69.83;99828.94;5091637;28;20249;-41
2023/04/29 01:51:23;;;;;;;;;;;;;;;8.03;69.82;99831.31;5091704;28;20318;-41
2023/04/29 01:53:48;;;;;;;;;;;;;;;7.77;70.63;99838.94;5091492;28;19912;-41
2023/04/29 01:56:14;;;;;;;;;;;;;;;7.75;71.55;99825.84;5091234;28;20007;-41
2023/04/29 01:58:40;;;;;;;;;;;;;;;7.89;70.69;99826.03;5091710;28;19912;-41
2023/04/29 02:01:05;;;;;;;;;;;;;;;7.71;71.65;99832.53;5091141;28;19912;-42
2023/04/29 02:03:31;;;;;;;;;;;;;;;7.69;72.46;99837.19;5091216;28;19912;-42
2023/04/29 02:05:57;;;;;;;;;;;;;;;7.75;72.04;99838.25;5091231;28;19912;-42
2023/04/29 02:08:23;;;;;;;;;;;;;;;7.96;71.55;99834.91;5091453;28;19941;-42
2023/04/29 02:10:52;;;;;;;;;;;;;;;7.82;71.72;99836.53;5091258;28;19920;-42
2023/04/29 02:13:18;;;;;;;;;;;;;;;7.84;71.95;99837.16;5090997;28;19912;-42
2023/04/29 02:15:43;;;;;;;;;;;;;;;7.61;72.11;99831.97;5091165;28;19923;-42
2023/04/29 02:18:08;;;;;;;;;;;;;;;7.71;72.48;99831.69;5091155;28;19916;-42
2023/04/29 02:20:33;;;;;;;;;;;;;;;7.69;72.33;99831.03;5091437;28;20023;-42
2023/04/29 02:22:59;;;;;;;;;;;;;;;7.80;71.51;99836.72;5090970;28;19937;-42
2023/04/29 02:25:24;;;;;;;;;;;;;;;8.01;70.04;99835.16;5090948;28;19939;-42
2023/04/29 02:27:50;;;;;;;;;;;;;;;7.94;69.90;99829.78;5090967;28;20040;-42
2023/04/29 02:30:16;;;;;;;;;;;;;;;7.73;71.57;99835.81;5090994;28;19912;-42
2023/04/29 02:32:41;;;;;;;;;;;;;;;8.01;70.28;99838.63;5092092;28;19916;-42
2023/04/29 02:35:07;;;;;;;;;;;;;;;7.86;70.98;99829.03;5097887;28;19916;-42
2023/04/29 02:37:32;;;;;;;;;;;;;;;8.14;69.86;99826.53;5097886;28;19912;-42
2023/04/29 02:39:58;;;;;;;;;;;;;;;8.15;69.73;99829.00;5098109;28;19916;-42
2023/04/29 02:42:23;;;;;;;;;;;;;;;7.89;70.39;99820.72;5097629;28;19916;-42
2023/04/29 02:44:48;;;;;;;;;;;;;;;8.07;69.89;99830.94;5097791;28;19919;-42
2023/04/29 02:47:14;;;;;;;;;;;;;;;7.95;70.24;99827.94;5097705;28;19912;-42
2023/04/29 02:49:39;;;;;;;;;;;;;;;7.74;71.03;99821.53;5097291;28;20327;-42
2023/04/29 02:52:04;;;;;;;;;;;;;;;7.69;71.35;99826.59;5097266;28;19927;-41
2023/04/29 02:54:30;;;;;;;;;;;;;;;7.66;71.31;99821.66;5097662;28;19912;-42
2023/04/29 02:56:56;;;;;;;;;;;;;;;7.71;71.59;99827.22;5097307;28;20337;-42
2023/04/29 02:59:21;;;;;;;;;;;;;;;7.72;71.34;99838.63;5097952;28;19950;-42
2023/04/29 03:01:46;;;;;;;;;;;;;;;7.74;71.16;99836.63;5097627;28;20298;-42
2023/04/29 03:04:12;;;;;;;;;;;;;;;7.62;71.73;99839.72;5097142;28;19961;-42
2023/04/29 03:06:37;;;;;;;;;;;;;;;7.73;71.50;99840.28;5097694;28;20064;-42
2023/04/29 03:09:03;;;;;;;;;;;;;;;7.69;71.95;99839.84;5097339;28;19993;-42
2023/04/29 03:11:28;;;;;;;;;;;;;;;7.66;71.71;99845.50;5097109;28;20318;-41
2023/04/29 03:13:54;;;;;;;;;;;;;;;7.73;71.14;99851.72;5097792;28;19967;-41
2023/04/29 03:16:20;;;;;;;;;;;;;;;7.85;71.23;99843.31;5097486;28;20001;-41
2023/04/29 03:18:45;;;;;;;;;;;;;;;7.87;69.94;99838.66;5097251;28;19912;-41
2023/04/29 03:21:11;;;;;;;;;;;;;;;7.84;70.82;99847.75;5097212;28;19920;-41
2023/04/29 03:23:38;;;;;;;;;;;;;;;7.73;71.49;99845.56;5097171;28;20003;-42
2023/04/29 03:26:04;;;;;;;;;;;;;;;7.63;71.88;99859.09;5097204;28;19946;-41
2023/04/29 03:28:29;;;;;;;;;;;;;;;7.81;70.67;99850.78;5096650;28;21715;-42
2023/04/29 03:30:56;;;;;;;;;;;;;;;8.05;70.15;99862.91;5096990;28;19916;-41
2023/04/29 03:33:21;;;;;;;;;;;;;;;7.98;69.60;99860.19;5097403;28;19912;-41
2023/04/29 03:35:46;;;;;;;;;;;;;;;8.04;68.90;99848.03;5097400;28;20295;-41
2023/04/29 03:38:12;;;;;;;;;;;;;;;7.99;69.08;99855.72;5097781;28;19989;-41
2023/04/29 03:40:37;;;;;;;;;;;;;;;8.00;69.54;99857.38;5096556;28;19912;-41
2023/04/29 03:43:02;;;;;;;;;;;;;;;8.15;68.35;99870.63;5097399;28;19923;-41
2023/04/29 03:45:28;;;;;;;;;;;;;;;8.10;68.67;99865.03;5094231;28;20009;-41
2023/04/29 03:47:53;;;;;;;;;;;;;;;7.81;69.44;99864.03;5093782;28;19916;-41
2023/04/29 03:50:19;;;;;;;;;;;;;;;7.71;69.74;99844.94;5093968;28;19912;-41
2023/04/29 03:52:44;;;;;;;;;;;;;;;8.14;68.50;99874.25;5094136;28;19916;-42
2023/04/29 03:55:10;;;;;;;;;;;;;;;8.00;69.17;99878.56;5093663;28;19919;-41
2023/04/29 03:57:35;;;;;;;;;;;;;;;8.41;68.09;99878.94;5093514;28;19955;-41
2023/04/29 04:00:00;;;;;;;;;;;;;;;8.54;67.88;99885.38;5093287;28;19955;-41
2023/04/29 04:02:26;;;;;;;;;;;;;;;8.74;66.99;99881.13;5093105;28;19924;-41
2023/04/29 04:04:53;;;;;;;;;;;;;;;8.73;66.58;99879.47;5093384;28;19912;-41
2023/04/29 04:07:18;;;;;;;;;;;;;;;8.85;66.51;99881.63;5093119;28;20408;-41
2023/04/29 04:09:43;;;;;;;;;;;;;;;9.15;65.46;99880.47;5093529;28;20003;-41
2023/04/29 04:12:09;;;;;;;;;;;;;;;8.92;65.89;99888.66;5093094;28;19916;-41
2023/04/29 04:14:34;;;;;;;;;;;;;;;9.06;66.12;99888.78;5093264;28;20007;-41
2023/04/29 04:17:00;;;;;;;;;;;;;;;9.05;65.77;99882.66;5093300;28;19996;-41
2023/04/29 04:19:26;;;;;;;;;;;;;;;9.15;64.95;99884.97;5093454;28;20383;-41
2023/04/29 04:21:51;;;;;;;;;;;;;;;9.12;64.34;99883.53;5093437;28;19912;-42
2023/04/29 04:24:16;;;;;;;;;;;;;;;8.99;64.55;99888.72;5092998;28;19913;-41
2023/04/29 04:26:41;;;;;;;;;;;;;;;8.98;65.36;99887.88;5092781;28;19920;-41
2023/04/29 04:29:07;;;;;;;;;;;;;;;9.48;63.68;99879.13;5092860;28;20424;-41
2023/04/29 04:31:33;;;;;;;;;;;;;;;9.58;63.52;99880.44;5092878;28;19916;-41
2023/04/29 04:33:58;;;;;;;;;;;;;;;9.53;63.12;99882.03;5092359;28;20033;-41
2023/04/29 04:36:24;;;;;;;;;;;;;;;9.90;63.04;99877.34;5092417;28;19952;-41
2023/04/29 04:38:49;;;;;;;;;;;;;;;10.49;60.98;99882.19;5092378;28;19916;-41
2023/04/29 04:41:14;;;;;;;;;;;;;;;10.74;59.29;99881.63;5092358;28;19912;-41
2023/04/29 04:43:40;;;;;;;;;;;;;;;11.18;58.62;99882.94;5092617;28;19912;-41
2023/04/29 04:46:12;;;;;;;;;;;;;;;11.50;57.08;99878.63;5090662;28;19959;-41
2023/04/29 04:48:37;;;;;;;;;;;;;;;11.64;59.70;99881.28;5092106;28;19916;-40
2023/04/29 04:51:09;;;;;;;;;;;;;;;12.04;59.81;99887.38;5087733;28;19991;-41
2023/04/29 04:53:35;;;;;;;;;;;;;;;13.37;63.24;99893.09;5091751;28;20393;-41
2023/04/29 04:56:00;;;;;;;;;;;;;;;14.46;70.89;99896.88;5091234;28;19999;-41
2023/04/29 04:58:25;;;;;;;;;;;;;;;15.40;57.42;99900.94;5091235;28;19912;-41
2023/04/29 05:00:51;;;;;;;;;;;;;;;16.01;54.95;99901.56;5091662;28;19920;-41
2023/04/29 05:03:16;;;;;;;;;;;;;;;16.44;54.42;99899.50;5091320;28;19927;-43
2023/04/29 05:05:42;;;;;;;;;;;;;;;16.78;50.42;99908.50;5091332;28;20371;-42
2023/04/29 05:08:07;;;;;;;;;;;;;;;16.96;47.18;99910.19;5090991;28;20385;-41
2023/04/29 05:10:35;;;;;;;;;;;;;;;17.32;48.18;99900.06;5091354;28;19913;-41
2023/04/29 05:13:00;;;;;;;;;;;;;;;17.49;44.50;99908.94;5091038;28;19961;-42
2023/04/29 05:15:26;;;;;;;;;;;;;;;17.71;44.11;99908.19;5090566;28;19912;-41
2023/04/29 05:17:51;;;;;;;;;;;;;;;17.92;40.75;99909.34;5091179;28;19961;-41
2023/04/29 05:20:17;;;;;;;;;;;;;;;17.58;40.24;99912.03;5091375;28;20006;-41
2023/04/29 05:22:42;;;;;;;;;;;;;;;17.12;40.08;99900.53;5091256;28;20011;-42
2023/04/29 05:25:07;;;;;;;;;;;;;;;16.79;40.75;99910.94;5090052;28;19964;-41
2023/04/29 05:27:32;;;;;;;;;;;;;;;16.08;42.37;99899.56;5091190;28;20002;-41
2023/04/29 05:29:58;;;;;;;;;;;;;;;15.75;43.98;99895.66;5091309;28;19919;-41
2023/04/29 05:32:23;;;;;;;;;;;;;;;15.94;42.35;99890.16;5090635;28;20003;-41
2023/04/29 05:34:49;;;;;;;;;;;;;;;14.46;46.06;99883.50;5090501;28;19923;-41
2023/04/29 05:37:14;;;;;;;;;;;;;;;15.11;44.44;99887.38;5086519;28;19927;-41
2023/04/29 05:39:39;;;;;;;;;;;;;;;15.28;44.14;99879.50;5090058;28;19925;-42
2023/04/29 05:42:05;;;;;;;;;;;;;;;15.11;44.59;99878.53;5090291;28;20355;-42
2023/04/29 05:44:31;;;;;;;;;;;;;;;15.75;43.47;99878.75;5090642;28;20042;-41
2023/04/29 05:46:57;;;;;;;;;;;;;;;16.14;41.87;99873.66;5089631;28;20321;-42
2023/04/29 05:49:22;;;;;;;;;;;;;;;16.41;41.44;99871.25;5090067;28;19988;-42
2023/04/29 05:51:48;;;;;;;;;;;;;;;16.89;41.85;99866.53;5092374;28;20026;-42
2023/04/29 05:54:13;;;;;;;;;;;;;;;17.33;42.15;99858.66;5090430;28;19939;-42
2023/04/29 05:56:39;;;;;;;;;;;;;;;18.08;39.02;99857.31;5089979;28;19916;-43
2023/04/29 05:59:04;;;;;;;;;;;;;;;18.48;37.90;99860.75;5083781;28;19920;-41
2023/04/29 06:01:30;;;;;;;;;;;;;;;18.66;37.88;99856.91;5090867;28;19916;-41
2023/04/29 06:03:55;;;;;;;;;;;;;;;19.31;36.56;99865.88;5089953;28;19974;-41
2023/04/29 06:06:21;;;;;;;;;;;;;;;20.00;35.41;99856.06;5090192;28;20070;-42
2023/04/29 06:08:47;;;;;;;;;;;;;;;20.75;34.07;99853.06;5090555;28;20335;-42
2023/04/29 06:11:13;;;;;;;;;;;;;;;19.81;34.94;99861.91;5090525;28;20306;-42
2023/04/29 06:13:38;;;;;;;;;;;;;;;20.16;33.90;99852.34;5088040;28;19913;-43
2023/04/29 06:16:04;;;;;;;;;;;;;;;20.28;33.79;99852.13;5087732;28;19923;-43
2023/04/29 06:18:29;;;;;;;;;;;;;;;20.74;33.09;99846.84;5088052;28;20008;-42
2023/04/29 06:20:54;;;;;;;;;;;;;;;21.01;32.64;99846.59;5088429;28;20312;-43
2023/04/29 06:23:20;;;;;;;;;;;;;;;21.72;31.73;99839.50;5087591;28;20420;-43
2023/04/29 06:25:45;;;;;;;;;;;;;;;20.77;32.72;99840.09;5087495;28;20074;-43
2023/04/29 06:28:10;;;;;;;;;;;;;;;21.02;32.43;99847.44;5088784;28;19916;-41
2023/04/29 06:30:36;;;;;;;;;;;;;;;21.58;31.82;99846.59;5089568;28;20279;-42
2023/04/29 06:33:01;;;;;;;;;;;;;;;21.47;31.23;99846.59;5089595;28;19951;-43
2023/04/29 06:35:26;;;;;;;;;;;;;;;21.93;30.99;99839.44;5089593;28;19998;-44
2023/04/29 06:37:52;;;;;;;;;;;;;;;21.96;30.17;99838.91;5090040;28;20226;-41
2023/04/29 06:40:17;;;;;;;;;;;;;;;21.51;31.10;99843.34;5089945;28;19911;-43
2023/04/29 06:42:42;;;;;;;;;;;;;;;21.67;30.73;99839.53;5090476;28;19916;-40
2023/04/29 06:45:08;;;;;;;;;;;;;;;22.53;30.53;99839.47;5090359;28;19988;-43
2023/04/29 06:47:33;;;;;;;;;;;;;;;22.51;30.37;99828.91;5090475;28;20172;-40
2023/04/29 06:49:58;;;;;;;;;;;;;;;21.81;31.45;99829.75;5089855;28;20392;-41
2023/04/29 06:52:24;;;;;;;;;;;;;;;22.86;30.74;99829.75;5108415;28;20273;-41
2023/04/29 06:54:49;;;;;;;;;;;;;;;23.57;29.40;99828.34;5110447;28;19918;-41
2023/04/29 06:57:14;;;;;;;;;;;;;;;23.88;28.95;99822.59;5109098;28;19911;-41
2023/04/29 06:59:40;;;;;;;;;;;;;;;23.50;29.08;99814.28;5110267;28;19935;-41
2023/04/29 07:02:05;;;;;;;;;;;;;;;23.50;29.69;99813.50;5110185;28;20413;-41
2023/04/29 07:04:30;;;;;;;;;;;;;;;23.29;29.97;99812.88;5110422;28;19934;-41
2023/04/29 07:06:56;;;;;;;;;;;;;;;22.61;30.49;99779.22;5110317;28;19919;-42
2023/04/29 07:09:22;;;;;;;;;;;;;;;24.10;28.90;99808.44;5110411;28;20052;-41
2023/04/29 07:11:48;;;;;;;;;;;;;;;22.52;30.03;99808.03;5110325;28;19915;-40
2023/04/29 07:14:13;;;;;;;;;;;;;;;23.00;29.02;99809.03;5110409;28;19924;-40
2023/04/29 07:16:38;;;;;;;;;;;;;;;24.16;27.64;99801.84;5110288;28;19912;-40
2023/04/29 07:19:03;;;;;;;;;;;;;;;24.80;26.81;99806.94;5110537;28;19916;-41
2023/04/29 07:21:30;;;;;;;;;;;;;;;25.47;26.23;99817.50;5113465;28;19911;-41
2023/04/29 07:23:55;;;;;;;;;;;;;;;25.39;25.49;99809.22;5114153;28;19999;-41
2023/04/29 07:26:20;;;;;;;;;;;;;;;25.84;25.17;99810.25;5113729;28;19959;-41
2023/04/29 07:28:46;;;;;;;;;;;;;;;25.03;26.14;99807.09;5114502;28;19915;-40
2023/04/29 07:31:13;;;;;;;;;;;;;;;25.82;25.20;99809.75;5113980;28;19969;-40
2023/04/29 07:33:38;;;;;;;;;;;;;;;24.33;27.44;99806.78;5113441;28;20398;-40
2023/04/29 07:36:06;;;;;;;;;;;;;;;24.70;26.87;99805.19;5114035;28;19916;-40
2023/04/29 07:38:31;;;;;;;;;;;;;;;24.02;27.80;99797.44;5113967;28;19912;-41
2023/04/29 07:40:56;;;;;;;;;;;;;;;24.33;27.80;99804.06;5108078;28;19969;-41
2023/04/29 07:43:22;;;;;;;;;;;;;;;25.02;26.45;99809.03;5093118;28;20272;-41
2023/04/29 07:45:47;;;;;;;;;;;;;;;24.75;26.46;99799.66;5093239;28;19912;-41
2023/04/29 07:48:13;;;;;;;;;;;;;;;25.03;26.94;99798.94;5093269;28;19931;-42
2023/04/29 07:50:38;;;;;;;;;;;;;;;25.21;26.04;99806.25;5096372;28;19912;-41
2023/04/29 07:53:03;;;;;;;;;;;;;;;25.55;26.17;99813.25;5113502;28;19916;-41
2023/04/29 07:55:29;;;;;;;;;;;;;;;24.47;26.75;99800.63;5112858;28;19919;-41
2023/04/29 07:57:55;;;;;;;;;;;;;;;24.14;27.10;99787.75;5112573;28;19915;-41
2023/04/29 08:00:21;;;;;;;;;;;;;;;24.78;26.49;99785.44;5113766;28;19955;-39
2023/04/29 08:02:49;;;;;;;;;;;;;;;23.70;27.29;99783.34;5113598;28;19912;-40
2023/04/29 08:05:14;;;;;;;;;;;;;;;24.10;26.27;99785.88;5112595;28;20390;-41
2023/04/29 08:07:39;;;;;;;;;;;;;;;23.60;27.83;99783.50;5113183;28;19984;-40
2023/04/29 08:10:05;;;;;;;;;;;;;;;25.06;25.71;99782.03;5113105;28;20433;-41
2023/04/29 08:12:30;;;;;;;;;;;;;;;24.72;27.00;99783.13;5112844;28;19919;-41
2023/04/29 08:14:56;;;;;;;;;;;;;;;23.89;27.46;99769.03;5112640;28;19912;-42
2023/04/29 08:17:21;;;;;;;;;;;;;;;24.96;26.33;99778.38;5113042;28;19912;-42
2023/04/29 08:19:47;;;;;;;;;;;;;;;24.80;25.40;99774.28;5113597;28;19911;-41
2023/04/29 08:22:13;;;;;;;;;;;;;;;25.01;25.65;99776.66;5113943;28;19916;-43
2023/04/29 08:24:39;;;;;;;;;;;;;;;25.28;25.29;99768.56;5113687;28;19912;-41
2023/04/29 08:27:04;;;;;;;;;;;;;;;26.38;24.82;99761.41;5113355;28;19928;-41
2023/04/29 08:29:31;;;;;;;;;;;;;;;27.22;23.54;99759.88;5113860;28;19960;-41
2023/04/29 08:31:56;;;;;;;;;;;;;;;24.92;25.62;99760.19;5113100;28;20430;-41
2023/04/29 08:34:22;;;;;;;;;;;;;;;25.41;24.75;99756.06;5112723;28;19998;-41
2023/04/29 08:36:47;;;;;;;;;;;;;;;24.82;25.38;99755.72;5112551;28;19911;-40
2023/04/29 08:39:13;;;;;;;;;;;;;;;25.74;24.14;99751.31;5112441;28;19918;-40
2023/04/29 08:41:38;;;;;;;;;;;;;;;25.65;24.85;99753.16;5099407;28;19916;-41
2023/04/29 08:44:04;;;;;;;;;;;;;;;25.82;24.91;99752.53;5092165;28;19960;-41
2023/04/29 08:46:30;;;;;;;;;;;;;;;26.18;24.38;99745.50;5090676;28;20023;-41
2023/04/29 08:48:56;;;;;;;;;;;;;;;26.38;24.28;99736.84;5090437;28;20010;-41
2023/04/29 08:51:21;;;;;;;;;;;;;;;26.59;24.66;99736.38;5099945;28;19916;-41
2023/04/29 08:53:47;;;;;;;;;;;;;;;26.66;24.25;99729.38;5112351;28;19937;-41
2023/04/29 08:56:15;;;;;;;;;;;;;;;27.11;23.41;99733.94;5112137;28;19912;-41
2023/04/29 08:58:41;;;;;;;;;;;;;;;27.26;23.13;99730.03;5112489;28;20370;-40
2023/04/29 09:01:08;;;;;;;;;;;;;;;27.41;23.49;99726.88;5112235;28;20383;-40
2023/04/29 09:03:40;;;;;;;;;;;;;;;28.02;22.28;99720.75;5112166;28;19977;-41
2023/04/29 09:06:05;;;;;;;;;;;;;;;27.91;22.29;99723.00;5112052;28;20010;-41
2023/04/29 09:08:31;;;;;;;;;;;;;;;26.34;23.75;99722.22;5111872;28;20010;-39
2023/04/29 09:10:57;;;;;;;;;;;;;;;26.26;24.16;99723.75;5111998;28;19922;-41
2023/04/29 09:13:24;;;;;;;;;;;;;;;27.05;22.40;99724.28;5111841;28;19912;-40
2023/04/29 09:15:49;;;;;;;;;;;;;;;26.97;22.54;99719.59;5111565;28;19911;-40
2023/04/29 09:18:35;;;;;;;;;;;;;;;27.35;21.98;99717.22;5111976;28;19915;-40
2023/04/29 09:21:11;;;;;;;;;;;;;;;27.23;23.02;99712.31;5107682;28;20412;-39
2023/04/29 09:23:37;;;;;;;;;;;;;;;27.52;22.15;99704.75;5112254;28;20310;-40
2023/04/29 09:26:02;;;;;;;;;;;;;;;26.39;23.36;99692.09;5111381;28;19926;-41
2023/04/29 09:28:28;;;;;;;;;;;;;;;25.93;23.11;99682.25;5111245;28;19988;-40
2023/04/29 09:30:53;;;;;;;;;;;;;;;25.75;24.18;99701.16;5111170;28;19911;-40
2023/04/29 09:33:19;;;;;;;;;;;;;;;25.89;23.38;99687.50;5110357;28;19912;-40
2023/04/29 09:35:45;;;;;;;;;;;;;;;25.43;23.36;99683.03;5111167;28;19927;-40
2023/04/29 09:38:14;;;;;;;;;;;;;;;25.05;23.70;99676.94;5111385;28;19983;-40
2023/04/29 09:40:41;;;;;;;;;;;;;;;24.96;24.70;99676.88;5111157;28;19943;-40
2023/04/29 09:43:12;;;;;;;;;;;;;;;25.80;22.91;99666.72;5110631;28;19999;-40
2023/04/29 09:45:38;;;;;;;;;;;;;;;25.77;23.37;99659.16;5111210;28;19958;-40
2023/04/29 09:48:04;;;;;;;;;;;;;;;24.97;24.20;99660.22;5111637;28;19912;-40
2023/04/29 09:50:33;;;;;;;;;;;;;;;24.85;24.63;99657.19;5109703;28;19919;-40
2023/04/29 09:52:59;;;;;;;;;;;;;;;25.10;24.36;99655.09;5111701;28;19915;-41
2023/04/29 09:55:25;;;;;;;;;;;;;;;25.48;22.59;99644.00;5110887;28;20474;-41
2023/04/29 09:57:51;;;;;;;;;;;;;;;24.47;24.06;99646.41;5111400;28;19912;-41
2023/04/29 10:00:16;;;;;;;;;;;;;;;25.32;23.41;99638.88;5111029;28;20433;-40
2023/04/29 10:02:44;;;;;;;;;;;;;;;24.90;23.63;99640.78;5110644;28;20066;-41
2023/04/29 10:05:10;;;;;;;;;;;;;;;25.11;22.28;99630.28;5110723;28;19912;-41
2023/04/29 10:07:38;;;;;;;;;;;;;;;24.51;23.39;99627.56;5110689;28;19912;-41
2023/04/29 10:10:04;;;;;;;;;;;;;;;24.33;21.03;99630.06;5110877;28;19911;-41
2023/04/29 10:12:30;;;;;;;;;;;;;;;24.80;21.09;99630.06;5110573;28;20019;-41
2023/04/29 10:15:02;;;;;;;;;;;;;;;24.77;20.86;99620.59;5109246;28;19947;-40
2023/04/29 10:17:46;;;;;;;;;;;;;;;25.04;19.89;99620.91;5110735;28;20464;-41
2023/04/29 10:20:20;;;;;;;;;;;;;;;25.09;19.91;99621.63;5111003;28;19912;-41
2023/04/29 10:22:49;;;;;;;;;;;;;;;25.41;20.93;99610.91;5111005;28;19915;-41
2023/04/29 10:25:15;;;;;;;;;;;;;;;26.00;20.54;99608.25;5110347;28;20367;-40
2023/04/29 10:27:42;;;;;;;;;;;;;;;26.26;20.26;99608.44;5110587;28;19922;-40
2023/04/29 10:30:10;;;;;;;;;;;;;;;26.29;20.34;99602.34;5110928;28;19963;-41
2023/04/29 10:32:39;;;;;;;;;;;;;;;27.13;19.81;99597.94;5110821;28;19916;-41
2023/04/29 10:35:05;;;;;;;;;;;;;;;27.44;19.79;99594.31;5102152;28;19923;-37
2023/04/29 10:37:31;;;;;;;;;;;;;;;26.70;20.93;99593.13;5090596;28;19995;-36
2023/04/29 10:40:04;;;;;;;;;;;;;;;26.80;24.12;99590.09;5089113;28;20023;-37
2023/04/29 10:42:42;;;;;;;;;;;;;;;25.86;20.70;99594.66;5090466;28;19934;-35
2023/04/29 10:45:17;;;;;;;;;;;;;;;24.78;25.25;99596.91;5090122;28;19922;-36
2023/04/29 10:48:05;;;;;;;;;;;;;;;24.37;22.78;99586.75;5090716;28;19912;-36
2023/04/29 10:50:58;;;;;;;;;;;;;;;24.55;26.01;99590.53;5092750;28;20376;-36
2023/04/29 10:53:24;;;;;;;;;;;;;;;24.70;22.72;99592.97;5106246;28;19923;-36
2023/04/29 10:56:02;;;;;;;;;;;;;;;24.84;22.42;99584.00;5094118;28;19912;-36
2023/04/29 10:58:33;;;;;;;;;;;;;;;25.35;22.14;99572.09;5094833;28;19935;-36
2023/04/29 11:00:59;;;;;;;;;;;;;;;26.75;24.36;99568.41;5094600;28;20372;-36
2023/04/29 11:03:43;;;;;;;;;;;;;;;26.90;20.83;99562.53;5094718;28;20003;-36
2023/04/29 11:06:08;;;;;;;;;;;;;;;27.67;20.29;99559.44;5093354;28;19992;-38
2023/04/29 11:08:38;;;;;;;;;;;;;;;28.00;21.05;99557.00;5094049;28;19924;-35
2023/04/29 11:11:05;;;;;;;;;;;;;;;27.78;22.26;99562.63;5093658;28;19923;-36
2023/04/29 11:13:32;;;;;;;;;;;;;;;27.60;23.40;99546.25;5093412;28;19916;-35
2023/04/29 11:16:07;;;;;;;;;;;;;;;27.75;20.16;99549.63;5092676;28;19919;-36
2023/04/29 11:18:34;;;;;;;;;;;;;;;28.09;19.21;99546.06;5093428;28;20321;-36
2023/04/29 11:21:05;;;;;;;;;;;;;;;28.50;19.38;99538.34;5094260;28;19920;-36
2023/04/29 11:23:34;;;;;;;;;;;;;;;29.25;18.71;99530.41;5094640;28;19951;-36
2023/04/29 11:26:00;;;;;;;;;;;;;;;29.57;17.82;99531.63;5094008;28;19927;-35
2023/04/29 11:28:26;;;;;;;;;;;;;;;29.94;17.67;99523.53;5092978;28;19924;-36
2023/04/29 11:30:52;;;;;;;;;;;;;;;28.50;18.53;99533.69;5093578;28;19973;-36
2023/04/29 11:33:18;;;;;;;;;;;;;;;28.31;18.62;99527.81;5093026;28;19912;-36
2023/04/29 11:35:43;;;;;;;;;;;;;;;28.08;18.98;99530.75;5093068;28;19916;-35
2023/04/29 11:38:09;;;;;;;;;;;;;;;27.96;18.99;99520.50;5092665;28;19988;-35
2023/04/29 11:40:34;;;;;;;;;;;;;;;26.13;20.13;99512.75;5092307;28;20003;-36
2023/04/29 11:42:59;;;;;;;;;;;;;;;25.38;20.79;99511.56;5093515;28;20347;-35
2023/04/29 11:45:25;;;;;;;;;;;;;;;25.30;21.42;99504.94;5092538;28;19919;-35
2023/04/29 11:47:51;;;;;;;;;;;;;;;25.68;20.60;99506.50;5091708;28;19924;-35
2023/04/29 11:50:18;;;;;;;;;;;;;;;25.47;20.64;99500.72;5092726;28;19923;-36
2023/04/29 11:52:45;;;;;;;;;;;;;;;25.41;20.69;99497.31;5093425;28;19998;-37
2023/04/29 11:55:10;;;;;;;;;;;;;;;25.28;21.07;99492.72;5093082;28;19983;-35
2023/04/29 11:57:36;;;;;;;;;;;;;;;26.21;19.88;99492.09;5093196;28;19945;-36
2023/04/29 12:00:02;;;;;;;;;;;;;;;26.95;19.33;99478.88;5092228;28;19999;-36
2023/04/29 12:02:31;;;;;;;;;;;;;;;28.12;18.39;99481.69;5091277;28;20476;-35
2023/04/29 12:04:56;;;;;;;;;;;;;;;27.97;18.15;99483.84;5095112;28;20398;-35
2023/04/29 12:07:22;;;;;;;;;;;;;;;28.20;17.86;99475.41;5091347;28;19963;-36
2023/04/29 12:09:47;;;;;;;;;;;;;;;27.75;18.02;99475.81;5097712;28;19954;-37
2023/04/29 12:12:13;;;;;;;;;;;;;;;25.21;20.41;99465.09;5107059;28;20371;-37
2023/04/29 12:14:40;;;;;;;;;;;;;;;24.92;20.96;99458.09;5102828;28;19989;-36
2023/04/29 12:17:05;;;;;;;;;;;;;;;24.57;21.15;99452.31;5101862;28;19923;-37
2023/04/29 12:19:31;;;;;;;;;;;;;;;24.42;21.15;99460.75;5099816;28;19916;-37
2023/04/29 12:22:01;;;;;;;;;;;;;;;24.12;21.73;99446.66;5100671;27;19955;-37
2023/04/29 12:24:26;;;;;;;;;;;;;;;25.63;21.35;99443.97;5101609;28;19912;-37
2023/04/29 12:26:53;;;;;;;;;;;;;;;25.74;20.65;99443.41;5097374;28;20019;-37
2023/04/29 12:29:22;;;;;;;;;;;;;;;25.12;21.30;99438.59;5100212;28;19916;-37
2023/04/29 12:31:48;;;;;;;;;;;;;;;25.84;20.72;99431.44;5094818;28;19959;-36
2023/04/29 12:34:13;;;;;;;;;;;;;;;26.31;21.82;99434.56;5092155;28;19939;-35
2023/04/29 12:36:40;;;;;;;;;;;;;;;25.79;20.39;99434.28;5091556;28;19916;-37
2023/04/29 12:39:09;;;;;;;;;;;;;;;25.54;20.44;99433.81;5092572;28;19922;-36
2023/04/29 12:41:38;;;;;;;;;;;;;;;25.06;20.66;99439.84;5092536;28;19921;-35
2023/04/29 12:44:05;;;;;;;;;;;;;;;25.74;20.42;99435.22;5092450;28;20024;-35
2023/04/29 12:46:35;;;;;;;;;;;;;;;25.61;21.41;99427.13;5092591;28;19919;-37